.
WxDataArchive / Data Records for 2008-06-01
2008-05-31 June 2008 2008-06-02

Data Records for Sunday, 01 June 2008

Time	Temp	Chill	HIndex	Humid	Dewpt	 Wind 	HiWind	WindDir	Rain 	Barom 
-----	----	-----	------	-----	-----	------	------	-------	-----	----- 
00:00	64.7	64.7	64.7	78	57.7	0	0	---	0.00	29.795 
00:05	64.5	64.5	64.5	78	57.5	0	0	---	0.00	29.790 
00:10	64.3	64.3	64.3	79	57.6	0	0	---	0.00	29.791 
00:15	64.2	64.2	64.2	80	57.9	0	0	---	0.00	29.792 
00:20	64.0	64.0	64.0	80	57.7	0	0	---	0.00	29.791 
00:25	64.0	64.0	64.0	80	57.7	0	0	---	0.00	29.790 
00:30	64.0	64.0	64.0	80	57.7	0	0	---	0.00	29.791 
00:35	63.9	63.9	63.9	80	57.6	0	0	---	0.00	29.789 
00:40	63.9	63.9	63.9	80	57.6	0	0	---	0.00	29.791 
00:45	63.9	63.9	63.9	81	57.9	0	0	---	0.00	29.791 
00:50	63.9	63.9	63.9	81	57.9	0	0	---	0.00	29.792 
00:55	63.9	63.9	63.9	81	57.9	0	0	---	0.00	29.793 
01:00	63.7	63.7	63.7	81	57.8	0	0	---	0.00	29.794 
01:05	63.5	63.5	63.5	81	57.6	0	0	---	0.00	29.791 
01:10	63.4	63.4	63.4	81	57.5	0	0	---	0.00	29.789 
01:15	63.2	63.2	63.2	81	57.3	0	0	---	0.00	29.789 
01:20	62.9	62.9	62.9	82	57.3	0	0	---	0.00	29.789 
01:25	62.6	62.6	62.6	83	57.4	0	0	---	0.00	29.793 
01:30	62.3	62.3	62.3	83	57.1	0	0	---	0.00	29.795 
01:35	62.0	62.0	62.0	84	57.1	0	0	---	0.00	29.795 
01:40	61.6	61.6	61.6	84	56.7	0	0	---	0.00	29.795 
01:45	61.5	61.5	61.5	85	56.9	0	0	---	0.00	29.796 
01:50	61.3	61.3	61.3	86	57.1	0	0	---	0.00	29.794 
01:55	61.2	61.2	61.2	86	57.0	0	0	---	0.00	29.796 
02:00	61.2	61.2	61.2	87	57.3	0	0	---	0.00	29.796 
02:05	60.9	60.9	60.9	87	57.0	0	0	---	0.00	29.796 
02:10	60.7	60.7	60.7	87	56.8	0	0	---	0.00	29.795 
02:15	60.5	60.5	60.5	87	56.6	0	0	---	0.00	29.796 
02:20	60.4	60.4	60.4	87	56.5	0	0	---	0.00	29.797 
02:25	60.1	60.1	60.1	87	56.2	0	0	---	0.00	29.796 
02:30	59.9	59.9	59.9	88	56.3	0	0	---	0.00	29.794 
02:35	59.6	59.6	59.6	88	56.0	0	0	---	0.00	29.793 
02:40	59.5	59.5	59.5	89	56.3	0	0	---	0.00	29.793 
02:45	59.3	59.3	59.3	89	56.1	0	0	---	0.00	29.796 
02:50	59.3	59.3	59.3	89	56.1	0	0	---	0.00	29.797 
02:55	59.2	59.2	59.2	89	56.0	0	0	---	0.00	29.798 
03:00	59.3	59.3	59.3	89	56.1	0	0	---	0.00	29.801 
03:05	59.3	59.3	59.3	88	55.7	0	0	---	0.00	29.804 
03:10	59.2	59.2	59.2	88	55.6	0	0	---	0.00	29.805 
03:15	59.3	59.3	59.3	87	55.4	0	0	---	0.00	29.804 
03:20	59.5	59.5	59.5	86	55.3	0	0	---	0.00	29.804 
03:25	59.6	59.6	59.6	86	55.4	0	0	---	0.00	29.803 
03:30	59.6	59.6	59.6	86	55.4	0	0	---	0.00	29.801 
03:35	59.8	59.8	59.8	86	55.6	0	0	---	0.00	29.802 
03:40	59.9	59.9	59.9	85	55.4	0	0	---	0.00	29.804 
03:45	59.9	59.9	59.9	85	55.4	0	0	---	0.00	29.803 
03:50	59.9	59.9	59.9	84	55.0	0	0	---	0.00	29.805 
03:55	59.9	59.9	59.9	84	55.0	0	0	---	0.00	29.807 
04:00	59.9	59.9	59.9	84	55.0	0	0	---	0.00	29.806 
04:05	59.8	59.8	59.8	84	55.0	0	0	---	0.00	29.808 
04:10	59.6	59.6	59.6	84	54.8	0	0	---	0.00	29.810 
04:15	59.3	59.3	59.3	83	54.1	0	0	---	0.00	29.812 
04:20	59.2	59.2	59.2	83	54.0	0	0	---	0.00	29.813 
04:25	58.9	58.9	58.9	83	53.7	0	0	---	0.00	29.812 
04:30	58.9	58.9	58.9	83	53.7	0	0	---	0.00	29.814 
04:35	58.7	58.7	58.7	83	53.5	0	0	---	0.00	29.814 
04:40	58.6	58.6	58.6	83	53.4	0	0	---	0.00	29.815 
04:45	58.4	58.4	58.4	83	53.3	0	0	---	0.00	29.816 
04:50	58.3	58.3	58.3	83	53.2	0	0	---	0.00	29.816 
04:55	58.3	58.3	58.3	82	52.8	0	0	---	0.00	29.817 
05:00	58.3	58.3	58.3	82	52.8	0	0	---	0.00	29.822 
05:05	58.3	58.3	58.3	82	52.8	0	0	---	0.00	29.827 
05:10	58.3	58.3	58.3	82	52.8	0	1	270	0.00	29.831 
05:15	58.1	58.1	58.1	83	53.0	0	0	---	0.00	29.833 
05:20	58.0	58.0	58.0	83	52.9	0	0	---	0.00	29.834 
05:25	58.0	58.0	58.0	83	52.9	0	0	---	0.00	29.835 
05:30	57.8	57.8	57.8	83	52.7	0	0	---	0.00	29.836 
05:35	57.6	57.6	57.6	83	52.5	0	0	---	0.00	29.842 
05:40	57.5	57.5	57.5	84	52.7	0	0	---	0.00	29.847 
05:45	57.3	57.3	57.3	84	52.5	0	0	---	0.00	29.849 
05:50	57.3	57.3	57.3	84	52.5	0	0	---	0.00	29.855 
05:55	57.3	57.3	57.3	84	52.5	0	0	---	0.00	29.857 
06:00	57.5	57.5	57.5	83	52.4	0	0	---	0.00	29.864 
06:05	57.5	57.5	57.5	83	52.4	0	0	---	0.00	29.867 
06:10	57.6	57.6	57.6	82	52.1	0	0	---	0.00	29.868 
06:15	57.8	57.8	57.8	81	52.0	0	0	---	0.00	29.870 
06:20	58.1	58.1	58.1	81	52.3	0	0	---	0.00	29.874 
06:25	58.6	58.6	58.6	79	52.1	0	1	270	0.00	29.878 
06:30	58.9	58.9	58.9	77	51.7	0	0	---	0.00	29.879 
06:35	59.3	59.3	59.3	77	52.1	0	0	---	0.00	29.880 
06:40	59.6	59.6	59.6	73	50.9	0	1	270	0.00	29.882 
06:45	60.1	60.1	60.1	74	51.8	0	1	270	0.00	29.881 
06:50	60.4	60.4	60.4	73	51.7	0	1	270	0.00	29.880 
06:55	60.5	60.5	60.5	69	50.3	0	1	270	0.00	29.880 
07:00	60.9	60.9	60.9	67	49.9	0	2	270	0.00	29.880 
07:05	61.2	61.2	61.2	66	49.7	0	1	270	0.00	29.881 
07:10	61.5	61.5	61.5	65	49.6	0	1	270	0.00	29.881 
07:15	62.0	62.0	62.0	66	50.5	0	1	270	0.00	29.881 
07:20	62.1	62.1	62.1	63	49.3	0	1	270	0.00	29.880 
07:25	62.3	62.3	62.3	62	49.1	0	1	270	0.00	29.881 
07:30	62.4	62.4	62.4	61	48.8	0	1	270	0.00	29.880 
07:35	62.9	62.9	62.9	62	49.7	0	1	270	0.00	29.879 
07:40	62.9	62.9	62.9	58	47.9	0	2	270	0.00	29.880 
07:45	63.1	63.1	63.1	59	48.5	1	2	270	0.00	29.881 
07:50	63.4	63.4	63.4	60	49.3	0	1	270	0.00	29.880 
07:55	63.7	63.7	63.7	59	49.1	0	1	270	0.00	29.880 
08:00	64.3	64.3	64.3	60	50.1	0	1	270	0.00	29.880 
08:05	64.8	64.8	64.8	59	50.1	0	2	270	0.00	29.882 
08:10	65.0	65.0	65.0	58	49.9	0	1	270	0.00	29.881 
08:15	65.0	65.0	65.0	57	49.4	0	1	270	0.00	29.882 
08:20	65.2	65.2	65.2	55	48.6	1	2	270	0.00	29.882 
08:25	65.3	65.3	65.3	55	48.7	1	2	315	0.00	29.882 
08:30	65.6	65.6	65.6	57	49.9	0	3	315	0.00	29.882 
08:35	66.0	66.0	66.0	55	49.4	1	3	270	0.00	29.882 
08:40	66.1	66.1	66.1	55	49.5	1	2	315	0.00	29.883 
08:45	66.4	66.4	66.4	56	50.2	0	2	315	0.00	29.888 
08:50	66.6	66.6	66.6	54	49.4	1	2	315	0.00	29.890 
08:55	66.8	66.8	66.8	56	50.6	1	2	315	0.00	29.891 
09:00	67.1	67.1	67.1	54	49.9	1	4	248	0.00	29.892 
09:05	67.1	67.1	67.1	56	50.9	2	3	270	0.00	29.896 
09:10	67.4	67.4	67.4	55	50.7	1	3	270	0.00	29.895 
09:15	67.9	67.9	67.9	56	51.6	1	2	292	0.00	29.895 
09:20	67.9	67.9	67.9	55	51.1	1	2	315	0.00	29.896 
09:25	68.4	68.4	68.4	54	51.1	1	3	315	0.00	29.897 
09:30	68.9	68.9	68.9	51	50.0	1	3	315	0.00	29.897 
09:35	69.1	69.1	69.1	54	51.7	1	3	315	0.00	29.898 
09:40	69.3	69.3	69.3	52	50.9	1	3	248	0.00	29.898 
09:45	69.6	69.6	69.6	50	50.1	2	4	315	0.00	29.896 
09:50	69.8	69.8	69.8	52	51.4	1	5	315	0.00	29.897 
09:55	70.1	70.1	70.1	52	51.6	1	3	248	0.00	29.896 
10:00	70.3	70.3	70.3	49	50.2	2	3	315	0.00	29.896 
10:05	70.4	70.4	70.4	50	50.9	2	4	248	0.00	29.897 
10:10	70.4	70.4	70.4	51	51.4	2	4	315	0.00	29.898 
10:15	70.3	70.3	70.3	50	50.8	2	3	338	0.00	29.898 
10:20	70.8	70.8	70.8	49	50.7	1	3	248	0.00	29.898 
10:25	71.1	71.1	71.1	54	53.6	1	3	292	0.00	29.898 
10:30	71.5	71.5	71.5	49	51.3	1	4	292	0.00	29.898 
10:35	71.6	71.6	71.6	49	51.4	1	3	292	0.00	29.897 
10:40	72.0	72.0	72.0	50	52.3	1	3	338	0.00	29.897 
10:45	72.1	72.1	72.1	50	52.4	2	3	248	0.00	29.899 
10:50	72.5	72.5	72.5	47	51.1	2	4	248	0.00	29.898 
10:55	72.5	72.5	72.5	50	52.8	1	4	270	0.00	29.897 
11:00	72.7	72.7	72.7	50	53.0	1	3	270	0.00	29.894 
11:05	73.2	73.2	73.2	50	53.4	1	4	248	0.00	29.893 
11:10	73.3	73.3	73.3	48	52.4	1	4	0	0.00	29.892 
11:15	73.3	73.3	73.3	48	52.4	2	5	270	0.00	29.890 
11:20	73.5	73.5	73.5	49	53.2	1	3	292	0.00	29.890 
11:25	74.0	74.0	74.0	46	51.9	1	3	292	0.00	29.891 
11:30	73.9	73.9	73.9	48	53.0	1	3	292	0.00	29.886 
11:35	73.9	73.9	73.9	49	53.5	1	3	315	0.00	29.881 
11:40	73.7	73.7	73.7	48	52.8	1	4	315	0.00	29.880 
11:45	73.7	73.7	73.7	46	51.6	1	5	315	0.00	29.879 
11:50	73.9	73.9	73.9	46	51.8	2	4	315	0.00	29.879 
11:55	74.2	74.2	74.2	46	52.1	2	5	292	0.00	29.881 
12:00	74.4	74.4	74.4	46	52.3	1	4	315	0.00	29.882 
12:05	74.7	74.7	74.7	52	55.9	1	5	248	0.00	29.881 
12:10	74.4	74.4	74.4	44	51.0	2	4	338	0.00	29.880 
12:15	74.4	74.4	74.4	46	52.3	1	3	292	0.00	29.879 
12:20	74.6	74.6	74.6	48	53.6	1	3	338	0.00	29.878 
12:25	74.9	74.9	74.9	47	53.3	1	4	315	0.00	29.880 
12:30	74.9	74.9	74.9	49	54.4	1	5	0	0.00	29.880 
12:35	74.9	74.9	74.9	46	52.7	1	4	0	0.00	29.883 
12:40	74.7	74.7	74.7	46	52.5	2	5	0	0.00	29.883 
12:45	74.6	74.6	74.6	46	52.4	1	4	315	0.00	29.889 
12:50	74.4	74.4	74.4	47	52.8	1	4	338	0.00	29.890 
12:55	74.7	74.7	74.7	46	52.5	1	4	22	0.00	29.885 
13:00	74.9	74.9	74.9	47	53.3	1	4	22	0.00	29.887 
13:05	75.3	75.3	77.7	46	53.1	1	4	0	0.00	29.888 
13:10	75.3	75.3	77.7	46	53.1	1	5	315	0.00	29.888 
13:15	75.4	75.4	77.7	45	52.6	1	3	315	0.00	29.889 
13:20	75.4	75.4	77.7	45	52.6	2	4	315	0.00	29.891 
13:25	75.6	75.6	77.8	45	52.7	2	6	270	0.00	29.890 
13:30	76.3	76.3	78.1	45	53.4	1	4	270	0.00	29.889 
13:35	76.5	76.5	78.3	49	55.9	1	4	270	0.00	29.889 
13:40	75.8	75.8	77.9	44	52.3	2	5	315	0.00	29.892 
13:45	76.0	76.0	78.0	45	53.1	1	3	270	0.00	29.888 
13:50	76.7	76.7	78.3	45	53.7	1	4	248	0.00	29.888 
13:55	76.7	76.7	78.2	43	52.5	1	3	315	0.00	29.893 
14:00	76.7	76.7	78.3	44	53.1	1	3	315	0.00	29.893 
14:05	77.0	77.0	78.4	43	52.8	2	4	225	0.00	29.895 
14:10	76.8	76.8	78.3	44	53.2	1	3	292	0.00	29.895 
14:15	76.8	76.8	78.3	45	53.8	1	3	0	0.00	29.894 
14:20	76.8	76.8	78.3	43	52.6	1	4	0	0.00	29.892 
14:25	76.7	76.7	78.2	43	52.5	2	6	0	0.00	29.892 
14:30	76.7	76.7	78.2	42	51.9	1	3	315	0.00	29.885 
14:35	76.3	76.3	78.1	45	53.4	1	3	315	0.00	29.883 
14:40	76.8	76.8	78.4	46	54.4	0	2	315	0.00	29.882 
14:45	76.7	76.7	78.3	45	53.7	1	4	292	0.00	29.881 
14:50	77.0	77.0	78.3	42	52.1	1	3	315	0.00	29.881 
14:55	76.8	76.8	78.3	43	52.6	1	4	315	0.00	29.883 
15:00	77.0	77.0	78.4	44	53.4	1	5	315	0.00	29.881 
15:05	77.2	77.2	78.5	43	52.9	1	6	270	0.00	29.879 
15:10	77.2	77.2	78.5	45	54.2	1	4	270	0.00	29.880 
15:15	77.4	77.4	78.6	44	53.8	1	4	292	0.00	29.879 
15:20	77.6	77.6	78.6	41	52.0	1	2	315	0.00	29.876 
15:25	77.2	77.2	78.3	40	51.0	2	4	315	0.00	29.878 
15:30	77.2	77.2	78.4	41	51.7	2	5	315	0.00	29.879 
15:35	76.7	76.7	78.2	42	51.9	1	2	315	0.00	29.878 
15:40	76.3	76.3	78.1	44	52.8	1	3	315	0.00	29.878 
15:45	76.8	76.8	78.2	42	51.9	1	3	292	0.00	29.878 
15:50	77.6	77.6	78.8	45	54.6	1	3	315	0.00	29.875 
15:55	77.7	77.7	78.7	42	52.8	1	3	292	0.00	29.873 
16:00	77.9	77.9	78.7	41	52.3	1	3	292	0.00	29.872 
16:05	78.1	78.1	78.7	39	51.1	1	3	292	0.00	29.875 
16:10	78.5	78.5	79.2	44	54.7	1	4	270	0.00	29.876 
16:15	78.3	78.3	78.9	40	52.0	1	3	248	0.00	29.878 
16:20	77.9	77.9	78.7	41	52.3	1	4	315	0.00	29.877 
16:25	77.9	77.9	78.7	40	51.6	1	3	315	0.00	29.878 
16:30	77.9	77.9	78.7	40	51.6	1	3	292	0.00	29.876 
16:35	77.9	77.9	78.7	40	51.6	1	2	248	0.00	29.876 
16:40	78.1	78.1	78.8	40	51.8	0	1	248	0.00	29.877 
16:45	77.7	77.7	78.6	41	52.1	0	2	202	0.00	29.877 
16:50	77.7	77.7	78.6	40	51.4	1	3	292	0.00	29.879 
16:55	77.6	77.6	78.6	41	52.0	1	3	248	0.00	29.879 
17:00	77.4	77.4	78.4	40	51.2	0	1	315	0.00	29.879 
17:05	77.6	77.6	78.5	39	50.7	1	3	315	0.00	29.878 
17:10	77.4	77.4	78.5	41	51.8	1	4	270	0.00	29.880 
17:15	77.0	77.0	78.2	40	50.8	1	4	292	0.00	29.878 
17:20	76.7	76.7	78.1	39	49.9	1	3	338	0.00	29.880 
17:25	76.8	76.8	78.2	41	51.3	0	1	315	0.00	29.878 
17:30	76.8	76.8	78.2	41	51.3	0	1	315	0.00	29.876 
17:35	76.5	76.5	78.1	41	51.0	0	3	0	0.00	29.878 
17:40	76.7	76.7	78.1	41	51.2	1	5	248	0.00	29.878 
17:45	76.7	76.7	78.1	39	49.9	1	3	270	0.00	29.874 
17:50	76.7	76.7	78.1	39	49.9	2	3	292	0.00	29.877 
17:55	76.5	76.5	78.0	40	50.4	1	2	248	0.00	29.876 
18:00	76.5	76.5	78.0	40	50.4	1	3	248	0.00	29.874 
18:05	76.3	76.3	77.9	40	50.2	1	4	270	0.00	29.875 
18:10	76.1	76.1	77.9	40	50.0	1	3	315	0.00	29.876 
18:15	76.0	76.0	77.8	40	49.9	0	2	315	0.00	29.873 
18:20	76.0	76.0	77.8	40	49.9	0	1	315	0.00	29.874 
18:25	76.0	76.0	77.9	41	50.6	0	2	315	0.00	29.876 
18:30	75.8	75.8	77.7	39	49.1	1	3	315	0.00	29.876 
18:35	75.4	75.4	77.6	39	48.7	0	1	315	0.00	29.875 
18:40	75.3	75.3	77.5	39	48.6	0	2	338	0.00	29.875 
18:45	75.1	75.1	77.5	40	49.1	0	1	338	0.00	29.877 
18:50	74.9	74.9	74.9	39	48.3	0	2	338	0.00	29.877 
18:55	74.6	74.6	74.6	41	49.3	0	1	338	0.00	29.877 
19:00	74.4	74.4	74.4	41	49.1	0	2	338	0.00	29.876 
19:05	74.2	74.2	74.2	42	49.6	0	2	270	0.00	29.875 
19:10	74.0	74.0	74.0	42	49.4	0	1	270	0.00	29.875 
19:15	73.7	73.7	73.7	43	49.8	0	3	270	0.00	29.876 
19:20	73.5	73.5	73.5	42	49.0	0	2	270	0.00	29.876 
19:25	73.2	73.2	73.2	44	50.0	0	2	0	0.00	29.877 
19:30	72.7	72.7	72.7	45	50.1	0	1	0	0.00	29.877 
19:35	72.3	72.3	72.3	45	49.8	0	1	0	0.00	29.876 
19:40	71.8	71.8	71.8	45	49.3	0	1	0	0.00	29.875 
19:45	71.5	71.5	71.5	47	50.2	0	0	---	0.00	29.876 
19:50	71.1	71.1	71.1	47	49.8	0	0	---	0.00	29.879 
19:55	70.6	70.6	70.6	47	49.4	0	0	---	0.00	29.879 
20:00	70.3	70.3	70.3	48	49.7	0	0	---	0.00	29.879 
20:05	69.8	69.8	69.8	49	49.8	0	0	---	0.00	29.878 
20:10	69.3	69.3	69.3	50	49.8	0	0	---	0.00	29.879 
20:15	68.8	68.8	68.8	50	49.4	0	0	---	0.00	29.879 
20:20	68.4	68.4	68.4	52	50.1	0	0	---	0.00	29.879 
20:25	68.1	68.1	68.1	51	49.3	0	0	---	0.00	29.880 
20:30	67.6	67.6	67.6	52	49.3	0	0	---	0.00	29.881 
20:35	67.3	67.3	67.3	52	49.1	0	0	---	0.00	29.882 
20:40	66.9	66.9	66.9	52	48.7	0	0	---	0.00	29.884 
20:45	66.6	66.6	66.6	53	48.9	0	0	---	0.00	29.886 
20:50	66.3	66.3	66.3	54	49.1	0	0	---	0.00	29.888 
20:55	66.0	66.0	66.0	54	48.9	0	0	---	0.00	29.892 
21:00	65.6	65.6	65.6	55	49.0	0	0	---	0.00	29.894 
21:05	65.3	65.3	65.3	56	49.2	0	0	---	0.00	29.895 
21:10	65.0	65.0	65.0	56	48.9	0	0	---	0.00	29.896 
21:15	64.7	64.7	64.7	57	49.1	0	0	---	0.00	29.898 
21:20	64.5	64.5	64.5	57	48.9	0	0	---	0.00	29.901 
21:25	64.2	64.2	64.2	58	49.1	0	0	---	0.00	29.903 
21:30	63.9	63.9	63.9	59	49.3	0	0	---	0.00	29.906 
21:35	63.5	63.5	63.5	60	49.4	0	0	---	0.00	29.907 
21:40	63.2	63.2	63.2	60	49.1	0	0	---	0.00	29.911 
21:45	62.9	62.9	62.9	61	49.2	0	0	---	0.00	29.912 
21:50	62.4	62.4	62.4	63	49.6	0	0	---	0.00	29.913 
21:55	62.1	62.1	62.1	64	49.8	0	0	---	0.00	29.914 
22:00	61.8	61.8	61.8	64	49.5	0	0	---	0.00	29.915 
22:05	61.5	61.5	61.5	64	49.2	0	0	---	0.00	29.914 
22:10	61.2	61.2	61.2	65	49.3	0	0	---	0.00	29.914 
22:15	60.9	60.9	60.9	68	50.3	0	0	---	0.00	29.914 
22:20	60.5	60.5	60.5	69	50.3	0	0	---	0.00	29.915 
22:25	60.2	60.2	60.2	70	50.4	0	0	---	0.00	29.916 
22:30	59.9	59.9	59.9	70	50.1	0	0	---	0.00	29.916 
22:35	59.8	59.8	59.8	71	50.4	0	0	---	0.00	29.916 
22:40	59.5	59.5	59.5	71	50.1	0	0	---	0.00	29.915 
22:45	59.2	59.2	59.2	73	50.5	0	0	---	0.00	29.915 
22:50	58.9	58.9	58.9	74	50.6	0	0	---	0.00	29.915 
22:55	58.7	58.7	58.7	75	50.8	0	0	---	0.00	29.916 
23:00	58.6	58.6	58.6	75	50.7	0	0	---	0.00	29.921 
23:05	58.4	58.4	58.4	76	50.9	0	0	---	0.00	29.924 
23:10	58.4	58.4	58.4	75	50.5	0	0	---	0.00	29.927 
23:15	58.3	58.3	58.3	76	50.8	0	0	---	0.00	29.929 
23:20	58.1	58.1	58.1	76	50.6	0	0	---	0.00	29.930 
23:25	58.0	58.0	58.0	77	50.8	0	0	---	0.00	29.931 
23:30	57.6	57.6	57.6	77	50.4	0	0	---	0.00	29.931 
23:35	57.5	57.5	57.5	77	50.3	0	0	---	0.00	29.931 
23:40	57.2	57.2	57.2	78	50.4	0	0	---	0.00	29.933 
23:45	56.9	56.9	56.9	79	50.5	0	0	---	0.00	29.933 
23:50	56.7	56.7	56.7	79	50.3	0	0	---	0.00	29.932 
23:55	56.5	56.5	56.5	79	50.1	0	0	---	0.00	29.931 

CoCoRaHS
IN-AL-39
A2 Web Hosting
Creative Commons License
GoDaddy
Look for:

loaded 2017-10-19 19:58:46 • last modified 2010-11-18 10:43:29
Privacy PolicyDisclaimer
• wx.awcolley.com is powered by PmWiki v.2002016 •
• all content (unless otherwise noted) © 2017 A W Colley